createdAt,value
2019-05-14T00:00:41.739Z,1.80
2019-05-14T00:03:11.267Z,2.03
2019-05-14T00:05:42.308Z,1.73
2019-05-14T00:08:11.464Z,1.50
2019-05-14T00:10:41.203Z,1.67
2019-05-14T00:13:11.988Z,1.73
2019-05-14T00:15:41.425Z,2.20
2019-05-14T00:18:11.759Z,3.47
2019-05-14T00:20:41.976Z,2.80
2019-05-14T00:23:11.851Z,3.10
2019-05-14T00:25:41.875Z,2.70
2019-05-14T00:28:11.744Z,2.97
2019-05-14T00:30:42.288Z,2.50
2019-05-14T00:33:11.627Z,2.73
2019-05-14T00:35:41.364Z,3.03
2019-05-14T00:38:11.935Z,2.67
2019-05-14T00:40:42.006Z,2.37
2019-05-14T00:43:11.420Z,2.27
2019-05-14T00:45:41.788Z,2.63
2019-05-14T00:48:12.799Z,2.70
2019-05-14T00:50:42.143Z,2.83
2019-05-14T00:53:11.774Z,2.53
2019-05-14T00:55:42.106Z,3.40
2019-05-14T00:58:12.291Z,3.80
2019-05-14T01:00:41.846Z,3.47
2019-05-14T01:03:11.135Z,3.10
2019-05-14T01:05:41.400Z,3.60
2019-05-14T01:08:11.977Z,2.77
2019-05-14T01:10:41.869Z,2.83
2019-05-14T01:13:11.219Z,2.63
2019-05-14T01:15:41.494Z,2.40
2019-05-14T01:18:11.390Z,2.10
2019-05-14T01:20:41.170Z,2.27
2019-05-14T01:23:11.498Z,2.77
2019-05-14T01:25:42.180Z,2.30
2019-05-14T01:28:11.402Z,2.60
2019-05-14T01:30:41.149Z,2.57
2019-05-14T01:33:11.811Z,2.47
2019-05-14T01:35:41.996Z,2.13
2019-05-14T01:38:11.569Z,2.30
2019-05-14T01:40:42.016Z,2.33
2019-05-14T01:43:11.588Z,2.63
2019-05-14T01:45:41.670Z,2.30
2019-05-14T01:48:11.683Z,2.90
2019-05-14T01:50:41.404Z,2.30
2019-05-14T01:53:11.497Z,3.07
2019-05-14T01:55:41.510Z,2.73
2019-05-14T01:58:11.542Z,2.67
2019-05-14T02:00:41.636Z,2.97
2019-05-14T02:03:12.116Z,2.93
2019-05-14T02:05:41.699Z,2.70
2019-05-14T02:08:12.104Z,2.30
2019-05-14T02:10:41.956Z,2.47
2019-05-14T02:13:12.293Z,2.80
2019-05-14T02:15:43.010Z,2.40
2019-05-14T02:18:12.249Z,2.33
2019-05-14T02:20:41.752Z,3.00
2019-05-14T02:23:11.996Z,4.93
2019-05-14T02:25:41.351Z,2.40
2019-05-14T02:28:11.581Z,2.10
2019-05-14T02:30:52.598Z,2.23
2019-05-14T02:33:11.387Z,1.97
2019-05-14T02:35:40.227Z,2.10
2019-05-14T02:38:10.347Z,2.20
2019-05-14T02:40:40.403Z,1.97
2019-05-14T02:43:09.821Z,2.13
2019-05-14T02:46:00.014Z,1.87
2019-05-14T02:48:10.420Z,2.20
2019-05-14T02:50:39.797Z,2.10
2019-05-14T02:53:10.258Z,6.07
2019-05-14T02:55:39.643Z,5.47
2019-05-14T02:58:09.953Z,6.20
2019-05-14T03:00:40.703Z,2.83
2019-05-14T03:03:10.125Z,2.20
2019-05-14T03:05:40.278Z,3.43
2019-05-14T03:08:09.689Z,2.23
2019-05-14T03:10:40.221Z,2.33
2019-05-14T03:13:09.834Z,2.67
2019-05-14T03:15:39.298Z,4.53
2019-05-14T03:18:09.362Z,3.43
2019-05-14T03:20:39.174Z,3.73
2019-05-14T03:23:14.214Z,3.57
2019-05-14T03:25:40.128Z,3.13
2019-05-14T03:28:09.649Z,2.90
2019-05-14T03:30:42.364Z,2.80
2019-05-14T03:33:13.467Z,3.20
2019-05-14T03:35:49.073Z,2.10
2019-05-14T03:38:11.915Z,2.37
2019-05-14T03:40:41.033Z,2.70
2019-05-14T03:43:10.122Z,1.83
2019-05-14T03:45:39.555Z,6.13
2019-05-14T03:48:10.433Z,5.60
2019-05-14T03:50:39.609Z,2.67
2019-05-14T03:53:10.100Z,1.97
2019-05-14T03:55:40.296Z,2.53
2019-05-14T03:58:10.022Z,2.60
2019-05-14T04:01:09.692Z,2.27
2019-05-14T04:03:40.016Z,2.30
2019-05-14T04:06:10.230Z,2.57
2019-05-14T04:08:41.584Z,2.57
2019-05-14T04:11:11.794Z,2.30
2019-05-14T04:13:41.450Z,2.50
2019-05-14T04:16:14.187Z,2.60
2019-05-14T04:18:46.136Z,2.20
2019-05-14T04:21:16.309Z,1.87
2019-05-14T04:23:50.411Z,3.67
2019-05-14T04:26:22.354Z,3.93
2019-05-14T04:28:52.066Z,2.77
2019-05-14T04:31:21.577Z,2.90
2019-05-14T04:33:51.977Z,2.90
2019-05-14T04:36:21.001Z,2.03
2019-05-14T04:38:54.788Z,2.03
2019-05-14T04:41:20.738Z,2.20
2019-05-14T04:43:50.409Z,2.10
2019-05-14T04:46:20.305Z,2.37
2019-05-14T04:48:51.016Z,2.33
2019-05-14T04:51:20.592Z,2.27
2019-05-14T04:53:50.440Z,2.23
2019-05-14T04:56:19.944Z,2.13
2019-05-14T04:58:49.823Z,2.07
2019-05-14T05:01:20.561Z,2.17
2019-05-14T05:03:50.802Z,3.03
2019-05-14T05:06:39.838Z,2.17
2019-05-14T05:09:09.585Z,2.67
2019-05-14T05:11:39.673Z,2.97
2019-05-14T05:14:09.150Z,2.90
2019-05-14T05:16:39.278Z,4.37
2019-05-14T05:19:10.405Z,3.37
2019-05-14T05:21:39.355Z,2.77
2019-05-14T05:24:09.154Z,2.60
2019-05-14T05:26:39.285Z,3.17
2019-05-14T05:29:10.448Z,2.63
2019-05-14T05:31:39.383Z,2.63
2019-05-14T05:34:09.039Z,2.67
2019-05-14T05:36:38.280Z,2.80
2019-05-14T05:39:08.725Z,3.03
2019-05-14T05:41:38.524Z,3.27
2019-05-14T05:44:08.270Z,3.07
2019-05-14T05:46:38.825Z,3.07
2019-05-14T05:49:08.176Z,3.43
2019-05-14T05:51:39.294Z,3.33
2019-05-14T05:54:09.240Z,3.47
2019-05-14T05:56:38.882Z,4.00
2019-05-14T05:59:09.582Z,4.20
2019-05-14T06:01:45.708Z,3.73
2019-05-14T06:04:09.670Z,3.70
2019-05-14T06:06:39.105Z,3.77
2019-05-14T06:09:09.025Z,4.03
2019-05-14T06:11:38.351Z,3.97
2019-05-14T06:14:08.358Z,3.77
2019-05-14T06:16:38.474Z,4.37
2019-05-14T06:19:08.253Z,3.90
2019-05-14T06:21:39.763Z,3.90
2019-05-14T06:24:09.077Z,4.27
2019-05-14T06:26:38.504Z,4.00
2019-05-14T06:29:08.375Z,3.90
2019-05-14T06:31:38.744Z,4.53
2019-05-14T06:34:09.554Z,4.53
2019-05-14T06:36:39.664Z,4.40
2019-05-14T06:39:09.365Z,4.00
2019-05-14T06:41:42.584Z,3.70
2019-05-14T06:44:09.553Z,3.80
2019-05-14T06:46:39.142Z,4.03
2019-05-14T06:49:09.077Z,4.50
2019-05-14T06:51:39.513Z,3.77
2019-05-14T06:54:09.391Z,4.00
2019-05-14T06:56:38.676Z,4.40
2019-05-14T06:59:09.009Z,4.00
2019-05-14T07:01:38.609Z,3.40
2019-05-14T07:04:08.823Z,3.97
2019-05-14T07:06:39.142Z,3.70
2019-05-14T07:09:08.791Z,4.03
2019-05-14T07:11:38.825Z,3.67
2019-05-14T07:14:11.339Z,4.10
2019-05-14T07:16:39.146Z,3.60
2019-05-14T07:19:09.467Z,3.90
2019-05-14T07:21:38.643Z,3.07
2019-05-14T07:24:08.744Z,4.00
2019-05-14T07:26:38.860Z,4.03
2019-05-14T07:29:11.492Z,4.17
2019-05-14T07:31:38.984Z,4.40
2019-05-14T07:34:08.931Z,3.73
2019-05-14T07:36:38.698Z,3.80
2019-05-14T07:39:09.418Z,3.95
2019-05-14T07:41:39.245Z,3.67
2019-05-14T07:44:09.265Z,4.10
2019-05-14T07:46:38.956Z,4.20
2019-05-14T07:49:11.468Z,4.50
2019-05-14T07:51:38.936Z,3.50
2019-05-14T07:54:08.434Z,4.25
2019-05-14T07:56:38.431Z,5.00
2019-05-14T07:59:08.882Z,3.92
2019-05-14T08:01:38.799Z,3.35
2019-05-14T08:04:11.256Z,3.80
2019-05-14T08:06:39.478Z,4.03
2019-05-14T08:09:09.382Z,3.80
2019-05-14T08:11:38.885Z,3.70
2019-05-14T08:14:09.104Z,3.50
2019-05-14T08:16:38.451Z,3.52
2019-05-14T08:19:20.959Z,3.25
2019-05-14T08:21:38.869Z,3.15
2019-05-14T08:24:08.899Z,3.67
2019-05-14T08:26:38.366Z,3.17
2019-05-14T08:29:08.683Z,3.58
2019-05-14T08:31:38.473Z,3.22
2019-05-14T08:34:09.133Z,2.65
2019-05-14T08:36:38.732Z,2.95
2019-05-14T08:39:08.826Z,3.65
2019-05-14T08:41:38.564Z,3.55
2019-05-14T08:44:08.649Z,3.42
2019-05-14T08:46:38.851Z,3.42
2019-05-14T08:49:09.015Z,3.15
2019-05-14T08:51:38.881Z,3.65
2019-05-14T08:54:08.347Z,3.30
2019-05-14T08:56:38.918Z,2.85
2019-05-14T08:59:08.880Z,2.75
2019-05-14T09:01:38.707Z,3.50
2019-05-14T09:04:09.048Z,3.10
2019-05-14T09:06:38.671Z,3.22
2019-05-14T09:09:09.373Z,2.55
2019-05-14T09:11:45.533Z,2.65
2019-05-14T09:14:10.784Z,2.60
2019-05-14T09:16:46.885Z,2.58
2019-05-14T09:19:11.024Z,2.65
2019-05-14T09:21:40.150Z,2.35
2019-05-14T09:24:09.671Z,3.02
2019-05-14T09:26:39.196Z,2.65
2019-05-14T09:29:19.443Z,2.30
2019-05-14T09:31:39.524Z,2.58
2019-05-14T09:34:09.266Z,2.58
2019-05-14T09:36:39.569Z,2.12
2019-05-14T09:39:11.942Z,2.47
2019-05-14T09:41:39.557Z,2.00
2019-05-14T09:44:09.284Z,2.50
2019-05-14T09:46:38.657Z,1.98
2019-05-14T09:49:08.030Z,2.75
2019-05-14T09:51:38.352Z,1.90
2019-05-14T09:54:08.510Z,2.08
2019-05-14T09:56:39.536Z,1.92
2019-05-14T09:59:09.179Z,2.10
2019-05-14T10:01:38.523Z,1.92
2019-05-14T10:04:09.215Z,2.02
2019-05-14T10:06:39.198Z,2.25
2019-05-14T10:09:08.720Z,2.20
2019-05-14T10:11:38.492Z,1.85
2019-05-14T10:14:08.102Z,1.98
2019-05-14T10:16:38.455Z,1.85
2019-05-14T10:19:08.113Z,2.10
2019-05-14T10:21:38.850Z,1.87
2019-05-14T10:24:09.303Z,1.47
2019-05-14T10:26:39.498Z,2.08
2019-05-14T10:29:08.878Z,1.80
2019-05-14T10:31:39.713Z,1.70
2019-05-14T10:34:08.696Z,2.00
2019-05-14T10:36:37.696Z,1.70
2019-05-14T10:39:09.414Z,1.60
2019-05-14T10:41:39.038Z,2.05
2019-05-14T10:44:09.203Z,1.92
2019-05-14T10:46:38.622Z,1.72
2019-05-14T10:49:19.395Z,1.67
2019-05-14T10:51:39.015Z,1.65
2019-05-14T10:54:21.261Z,1.75
2019-05-14T10:56:38.938Z,1.62
2019-05-14T10:59:09.453Z,1.90
2019-05-14T11:01:39.161Z,1.70
2019-05-14T11:04:08.281Z,1.80
2019-05-14T11:06:38.815Z,1.52
2019-05-14T11:09:09.067Z,2.30
2019-05-14T11:11:38.430Z,1.75
2019-05-14T11:14:08.837Z,1.70
2019-05-14T11:16:41.743Z,1.75
2019-05-14T11:19:09.654Z,1.57
2019-05-14T11:21:39.317Z,1.72
2019-05-14T11:24:09.622Z,1.60
2019-05-14T11:26:39.327Z,1.98
2019-05-14T11:29:08.618Z,1.80
2019-05-14T11:31:39.210Z,1.95
2019-05-14T11:34:08.454Z,1.70
2019-05-14T11:36:38.874Z,2.00
2019-05-14T11:39:09.285Z,1.85
2019-05-14T11:41:38.959Z,1.60
2019-05-14T11:44:09.196Z,2.05
2019-05-14T11:46:47.380Z,1.80
2019-05-14T11:49:09.062Z,1.70
2019-05-14T11:51:59.460Z,1.70
2019-05-14T11:54:09.602Z,1.87
2019-05-14T11:56:41.894Z,2.12
2019-05-14T11:59:09.667Z,1.80
2019-05-14T12:01:39.325Z,2.15
2019-05-14T12:04:09.131Z,2.00
2019-05-14T12:06:39.085Z,1.55
2019-05-14T12:09:11.872Z,1.80
2019-05-14T12:11:39.587Z,1.82
2019-05-14T12:14:09.117Z,1.62
2019-05-14T12:16:40.183Z,1.67
2019-05-14T12:19:11.934Z,1.50
2019-05-14T12:21:39.985Z,1.57
2019-05-14T12:24:13.776Z,1.40
2019-05-14T12:26:40.243Z,1.50
2019-05-14T12:29:10.078Z,1.47
2019-05-14T12:31:39.271Z,1.52
2019-05-14T12:34:08.433Z,2.25
2019-05-14T12:36:38.908Z,1.52
2019-05-14T12:39:09.691Z,1.50
2019-05-14T12:41:38.948Z,1.60
2019-05-14T12:44:09.283Z,1.47
2019-05-14T12:46:38.527Z,1.80
2019-05-14T12:49:11.383Z,2.60
2019-05-14T12:51:42.417Z,1.60
2019-05-14T12:54:09.452Z,1.65
2019-05-14T12:56:38.995Z,1.72
2019-05-14T12:59:08.647Z,1.60
2019-05-14T13:01:37.708Z,1.40
2019-05-14T13:04:08.462Z,1.67
2019-05-14T13:06:39.923Z,1.80
2019-05-14T13:09:09.405Z,1.22
2019-05-14T13:11:41.488Z,1.47
2019-05-14T13:14:09.663Z,1.47
2019-05-14T13:16:39.600Z,1.70
2019-05-14T13:19:09.299Z,1.77
2019-05-14T13:21:39.074Z,1.57
2019-05-14T13:24:08.940Z,1.47
2019-05-14T13:26:38.983Z,1.70
2019-05-14T13:29:10.704Z,1.75
2019-05-14T13:31:38.887Z,1.30
2019-05-14T13:34:08.888Z,1.57
2019-05-14T13:36:39.731Z,1.90
2019-05-14T13:39:09.433Z,1.57
2019-05-14T13:41:41.717Z,1.72
2019-05-14T13:44:21.199Z,1.70
2019-05-14T13:46:39.858Z,1.40
2019-05-14T13:49:09.204Z,1.42
2019-05-14T13:51:38.874Z,1.30
2019-05-14T13:54:08.469Z,1.42
2019-05-14T13:56:39.000Z,1.47
2019-05-14T13:59:09.547Z,1.37
2019-05-14T14:01:38.780Z,1.10
2019-05-14T14:04:12.566Z,1.70
2019-05-14T14:06:39.374Z,1.75
2019-05-14T14:09:12.460Z,1.65
2019-05-14T14:11:39.432Z,1.22
2019-05-14T14:14:08.913Z,1.67
2019-05-14T14:16:39.541Z,1.40
2019-05-14T14:19:08.864Z,1.92
2019-05-14T14:21:39.651Z,1.65
2019-05-14T14:24:09.574Z,1.60
2019-05-14T14:26:39.463Z,1.87
2019-05-14T14:29:09.366Z,1.52
2019-05-14T14:31:41.387Z,1.40
2019-05-14T14:34:09.409Z,1.50
2019-05-14T14:36:38.822Z,1.82
2019-05-14T14:39:09.739Z,1.57
2019-05-14T14:41:38.689Z,1.45
2019-05-14T14:44:08.882Z,1.45
2019-05-14T14:46:39.133Z,1.45
2019-05-14T14:49:10.851Z,1.30
2019-05-14T14:51:44.017Z,1.50
2019-05-14T14:54:14.587Z,1.40
2019-05-14T14:56:40.510Z,1.30
2019-05-14T14:59:09.683Z,1.50
2019-05-14T15:01:40.284Z,1.30
2019-05-14T15:04:13.500Z,1.40
2019-05-14T15:06:41.183Z,1.37
2019-05-14T15:09:11.348Z,1.50
2019-05-14T15:11:40.481Z,1.45
2019-05-14T15:14:12.298Z,1.37
2019-05-14T15:16:42.121Z,1.55
2019-05-14T15:19:12.100Z,1.42
2019-05-14T15:21:42.960Z,1.32
2019-05-14T15:24:15.662Z,1.70
2019-05-14T15:26:43.045Z,1.45
2019-05-14T15:29:12.036Z,1.40
2019-05-14T15:31:41.385Z,1.60
2019-05-14T15:34:10.789Z,1.35
2019-05-14T15:36:41.686Z,1.70
2019-05-14T15:39:10.576Z,1.37
2019-05-14T15:41:39.649Z,1.42
2019-05-14T15:44:09.150Z,1.30
2019-05-14T15:46:41.884Z,1.30
2019-05-14T15:49:09.319Z,1.40
2019-05-14T15:51:39.740Z,1.52
2019-05-14T15:54:34.505Z,1.47
2019-05-14T15:56:40.599Z,1.30
2019-05-14T15:59:09.650Z,1.20
2019-05-14T16:01:39.840Z,1.40
2019-05-14T16:04:11.524Z,1.20
2019-05-14T16:06:40.687Z,1.60
2019-05-14T16:09:09.747Z,1.37
2019-05-14T16:11:39.365Z,1.57
2019-05-14T16:14:10.327Z,1.30
2019-05-14T16:16:39.564Z,1.47
2019-05-14T16:19:08.664Z,1.30
2019-05-14T16:21:38.577Z,1.22
2019-05-14T16:24:08.431Z,1.20
2019-05-14T16:26:37.620Z,1.43
2019-05-14T16:29:08.941Z,1.43
2019-05-14T16:31:43.013Z,1.83
2019-05-14T16:34:09.705Z,1.53
2019-05-14T16:36:41.221Z,1.37
2019-05-14T16:39:09.801Z,1.30
2019-05-14T16:41:39.102Z,1.00
2019-05-14T16:44:09.125Z,1.40
2019-05-14T16:46:38.607Z,1.03
2019-05-14T16:49:08.927Z,1.20
2019-05-14T16:51:38.021Z,1.00
2019-05-14T16:54:07.032Z,1.47
2019-05-14T16:56:36.040Z,1.00
2019-05-14T16:59:05.319Z,1.40
2019-05-14T17:01:34.464Z,1.23
2019-05-14T17:04:03.617Z,1.37
2019-05-14T17:06:34.887Z,1.00
2019-05-14T17:09:04.164Z,1.17
2019-05-14T17:11:33.005Z,1.10
2019-05-14T17:14:02.256Z,1.57
2019-05-14T17:16:31.310Z,1.20
2019-05-14T17:19:00.761Z,1.47
2019-05-14T17:21:31.233Z,1.13
2019-05-14T17:24:00.441Z,1.10
2019-05-14T17:26:29.575Z,1.20
2019-05-14T17:28:59.608Z,1.33
2019-05-14T17:31:31.125Z,1.20
2019-05-14T17:33:59.789Z,1.50
2019-05-14T17:36:28.837Z,1.10
2019-05-14T17:38:58.606Z,1.40
2019-05-14T17:41:27.755Z,1.30
2019-05-14T17:43:58.615Z,1.30
2019-05-14T17:46:28.947Z,1.27
2019-05-14T17:48:59.137Z,1.30
2019-05-14T17:51:28.563Z,1.40
2019-05-14T17:53:58.707Z,1.40
2019-05-14T17:56:28.449Z,1.70
2019-05-14T17:58:58.065Z,1.20
2019-05-14T18:01:28.988Z,1.73
2019-05-14T18:03:58.564Z,1.33
2019-05-14T18:06:28.623Z,1.20
2019-05-14T18:08:58.472Z,1.43
2019-05-14T18:11:28.392Z,1.23
2019-05-14T18:13:58.977Z,1.20
2019-05-14T18:16:28.978Z,1.40
2019-05-14T18:18:58.403Z,1.10
2019-05-14T18:21:28.457Z,1.10
2019-05-14T18:23:58.588Z,1.00
2019-05-14T18:26:29.065Z,1.00
2019-05-14T18:28:58.303Z,1.10
2019-05-14T18:31:27.290Z,1.00
2019-05-14T18:33:58.616Z,1.40
2019-05-14T18:36:28.522Z,1.17
2019-05-14T18:38:58.575Z,1.10
2019-05-14T18:41:29.321Z,1.10
2019-05-14T18:43:59.282Z,1.27
2019-05-14T18:46:28.777Z,1.20
2019-05-14T18:48:59.174Z,1.30
2019-05-14T18:51:28.997Z,1.30
2019-05-14T18:53:58.526Z,1.53
2019-05-14T18:56:29.210Z,1.60
2019-05-14T18:58:58.530Z,1.50
2019-05-14T19:01:28.864Z,1.87
2019-05-14T19:03:59.037Z,1.50
2019-05-14T19:06:28.502Z,1.40
2019-05-14T19:08:57.887Z,1.33
2019-05-14T19:11:28.080Z,1.43
2019-05-14T19:13:57.264Z,1.23
2019-05-14T19:16:28.675Z,1.20
2019-05-14T19:18:58.471Z,1.53
2019-05-14T19:21:28.641Z,1.50
2019-05-14T19:23:57.629Z,1.67
2019-05-14T19:26:36.151Z,1.20
2019-05-14T19:28:58.183Z,1.17
2019-05-14T19:31:27.956Z,1.30
2019-05-14T19:33:57.429Z,1.37
2019-05-14T19:36:28.130Z,1.30
2019-05-14T19:38:58.456Z,1.50
2019-05-14T19:41:28.120Z,2.53
2019-05-14T19:43:59.450Z,1.70
2019-05-14T19:46:29.141Z,1.70
2019-05-14T19:48:59.098Z,2.33
2019-05-14T19:51:28.771Z,1.87
2019-05-14T19:53:58.529Z,1.67
2019-05-14T19:56:29.302Z,1.90
2019-05-14T19:58:59.059Z,1.40
2019-05-14T20:01:28.755Z,1.50
2019-05-14T20:03:59.008Z,1.50
2019-05-14T20:06:29.544Z,1.50
2019-05-14T20:08:58.906Z,1.60
2019-05-14T20:11:28.907Z,1.50
2019-05-14T20:13:59.098Z,1.50
2019-05-14T20:16:28.605Z,1.40
2019-05-14T20:18:58.082Z,1.23
2019-05-14T20:21:28.229Z,1.83
2019-05-14T20:23:59.017Z,1.70
2019-05-14T20:26:28.331Z,1.30
2019-05-14T20:28:59.078Z,1.53
2019-05-14T20:31:29.695Z,1.70
2019-05-14T20:33:59.185Z,1.50
2019-05-14T20:36:28.494Z,1.40
2019-05-14T20:38:58.907Z,1.30
2019-05-14T20:41:28.726Z,1.57
2019-05-14T20:43:58.600Z,1.40
2019-05-14T20:46:49.473Z,1.20
2019-05-14T20:49:19.460Z,1.50
2019-05-14T20:51:49.409Z,1.50
2019-05-14T20:54:18.615Z,1.50
2019-05-14T20:56:49.308Z,1.60
2019-05-14T20:59:19.160Z,1.33
2019-05-14T21:01:48.448Z,1.40
2019-05-14T21:04:18.884Z,1.47
2019-05-14T21:06:48.631Z,1.17
2019-05-14T21:09:19.175Z,1.83
2019-05-14T21:11:49.237Z,1.60
2019-05-14T21:14:19.923Z,1.63
2019-05-14T21:16:49.088Z,2.03
2019-05-14T21:19:18.108Z,1.90
2019-05-14T21:21:48.998Z,1.70
2019-05-14T21:24:18.115Z,1.40
2019-05-14T21:26:48.467Z,1.40
2019-05-14T21:29:17.411Z,1.53
2019-05-14T21:31:46.277Z,1.67
2019-05-14T21:34:15.234Z,1.33
2019-05-14T21:36:45.818Z,1.17
2019-05-14T21:39:15.042Z,1.63
2019-05-14T21:41:44.183Z,1.20
2019-05-14T21:44:13.138Z,1.23
2019-05-14T21:46:42.103Z,1.30
2019-05-14T21:49:11.516Z,1.20
2019-05-14T21:51:40.645Z,1.40
2019-05-14T21:54:09.682Z,1.30
2019-05-14T21:56:38.987Z,1.40
2019-05-14T21:59:09.490Z,1.40
2019-05-14T22:01:39.555Z,1.40
2019-05-14T22:04:11.574Z,1.50
2019-05-14T22:06:41.240Z,1.40
2019-05-14T22:09:10.414Z,1.60
2019-05-14T22:11:39.541Z,1.97
2019-05-14T22:14:08.613Z,2.03
2019-05-14T22:16:38.159Z,2.20
2019-05-14T22:19:08.561Z,2.70
2019-05-14T22:21:38.684Z,2.47
2019-05-14T22:24:08.608Z,3.30
2019-05-14T22:26:38.834Z,3.77
2019-05-14T22:29:08.289Z,2.90
2019-05-14T22:31:38.786Z,3.47
2019-05-14T22:34:08.857Z,3.17
2019-05-14T22:36:38.586Z,2.60
2019-05-14T22:39:07.824Z,2.10
2019-05-14T22:41:38.228Z,2.03
2019-05-14T22:44:09.522Z,2.40
2019-05-14T22:46:40.215Z,2.37
2019-05-14T22:49:09.150Z,2.63
2019-05-14T22:51:38.389Z,2.50
2019-05-14T22:54:08.722Z,2.43
2019-05-14T22:56:38.920Z,3.10
2019-05-14T22:59:08.066Z,3.10
2019-05-14T23:01:38.706Z,2.87
2019-05-14T23:04:08.988Z,2.80
2019-05-14T23:06:38.474Z,2.90
2019-05-14T23:09:09.093Z,2.77
2019-05-14T23:11:38.660Z,2.60
2019-05-14T23:14:07.824Z,3.00
2019-05-14T23:16:41.226Z,2.50
2019-05-14T23:19:08.341Z,2.27
2019-05-14T23:21:39.041Z,2.20
2019-05-14T23:24:09.152Z,3.13
2019-05-14T23:26:38.453Z,2.77
2019-05-14T23:29:07.566Z,2.70
2019-05-14T23:31:38.513Z,2.90
2019-05-14T23:34:07.520Z,3.00
2019-05-14T23:36:38.632Z,2.73
2019-05-14T23:39:08.787Z,3.43
2019-05-14T23:41:38.519Z,2.77
2019-05-14T23:44:08.385Z,2.60
2019-05-14T23:46:37.615Z,2.83
2019-05-14T23:49:08.724Z,3.40
2019-05-14T23:51:38.528Z,3.50
2019-05-14T23:54:08.762Z,3.47
2019-05-14T23:56:38.518Z,3.27
2019-05-14T23:59:09.263Z,3.73
